Time;durP1;ratioP1;P1;durP2;ratioP2;P2;SDS_P1;SDS_P2;PMS_P1;PMS_P2;Temp;Humidity;BMP_temperature;BMP_pressure;BME280_temperature;BME280_humidity;BME280_pressure;Samples;Min_cycle;Max_cycle;Signal;HPM_P1;HPM_P2
2024/01/22 00:01:41;;;;;;;24.20;12.40;;;;;;;0.50;71.71;101029.16;130354;1259;106481;-81
2024/01/22 00:04:46;;;;;;;26.30;12.70;;;;;;;0.52;71.37;101017.37;130377;1259;108606;-81
2024/01/22 00:07:52;;;;;;;23.30;11.70;;;;;;;0.54;71.38;101014.31;130352;1261;108737;-81
2024/01/22 00:10:57;;;;;;;22.60;12.00;;;;;;;0.55;71.46;101009.20;130350;1260;107178;-82
2024/01/22 00:14:03;;;;;;;19.30;10.20;;;;;;;0.54;70.86;100999.91;130362;1263;108195;-82
2024/01/22 00:17:09;;;;;;;19.60;9.80;;;;;;;0.54;71.05;100991.69;130339;1260;106242;-81
2024/01/22 00:20:14;;;;;;;19.70;9.90;;;;;;;0.55;71.05;100986.23;130406;1259;106678;-82
2024/01/22 00:23:20;;;;;;;21.30;10.20;;;;;;;0.56;70.83;100987.25;130462;1282;108414;-79
2024/01/22 00:26:26;;;;;;;16.00;9.00;;;;;;;0.56;70.56;100978.84;130438;1259;108476;-82
2024/01/22 00:29:31;;;;;;;16.80;8.80;;;;;;;0.56;70.45;100968.17;130349;1274;108360;-81
2024/01/22 00:32:37;;;;;;;16.60;9.00;;;;;;;0.55;70.21;100972.91;130402;1264;107219;-82
2024/01/22 00:35:42;;;;;;;15.20;8.10;;;;;;;0.52;69.44;100966.10;130358;1259;106468;-80
2024/01/22 00:38:48;;;;;;;14.40;7.50;;;;;;;0.51;69.66;100971.91;130385;1260;107595;-82
2024/01/22 00:41:54;;;;;;;14.30;7.90;;;;;;;0.50;69.82;100973.35;130419;1262;108803;-81
2024/01/22 00:44:59;;;;;;;15.30;8.20;;;;;;;0.49;69.70;100964.65;130376;1260;106470;-82
2024/01/22 00:48:06;;;;;;;15.10;7.80;;;;;;;0.47;69.61;100961.59;130378;1265;106588;-82
2024/01/22 00:51:12;;;;;;;13.60;7.10;;;;;;;0.43;69.71;100950.38;130320;1259;107651;-81
2024/01/22 00:54:17;;;;;;;17.60;8.30;;;;;;;0.37;68.92;100942.79;130372;1263;106456;-81
2024/01/22 00:57:23;;;;;;;15.10;7.60;;;;;;;0.30;69.31;100945.39;130339;1260;107965;-80
2024/01/22 01:00:29;;;;;;;13.20;7.20;;;;;;;0.26;69.47;100953.10;130382;1282;108460;-81
2024/01/22 01:03:34;;;;;;;12.10;7.00;;;;;;;0.20;69.13;100954.08;130379;1263;108759;-80
2024/01/22 01:06:40;;;;;;;18.10;8.20;;;;;;;0.14;69.16;100954.17;130420;1264;105417;-81
2024/01/22 01:09:46;;;;;;;20.10;9.50;;;;;;;0.09;68.90;100964.16;130438;1259;107608;-81
2024/01/22 01:12:51;;;;;;;15.40;8.20;;;;;;;0.06;69.05;100962.38;130370;1264;106790;-82
2024/01/22 01:15:57;;;;;;;14.80;8.00;;;;;;;0.03;68.59;100953.77;130326;1262;107743;-81
2024/01/22 01:19:02;;;;;;;23.40;10.10;;;;;;;-0.02;68.72;100948.02;130406;1272;108661;-81
2024/01/22 01:22:08;;;;;;;17.10;8.30;;;;;;;-0.05;68.63;100944.66;130393;1259;108471;-81
2024/01/22 01:25:13;;;;;;;76.60;25.50;;;;;;;-0.08;68.58;100943.58;130359;1261;106488;-80
2024/01/22 01:28:19;;;;;;;27.70;10.90;;;;;;;-0.10;68.66;100947.35;130397;1259;108524;-80
2024/01/22 01:31:28;;;;;;;16.90;7.90;;;;;;;-0.12;68.36;100945.52;130404;1263;108758;-81
2024/01/22 01:34:34;;;;;;;13.50;7.10;;;;;;;-0.15;68.53;100958.77;130382;1262;108081;-81
2024/01/22 01:37:39;;;;;;;17.80;8.70;;;;;;;-0.16;68.43;100965.13;130282;1259;106722;-81
2024/01/22 01:40:45;;;;;;;16.10;7.60;;;;;;;-0.18;68.50;100956.44;130326;1263;107004;-80
2024/01/22 01:43:50;;;;;;;24.90;11.40;;;;;;;-0.17;68.22;100962.20;130314;1259;108331;-82
2024/01/22 01:46:56;;;;;;;19.80;9.20;;;;;;;-0.18;68.23;100968.35;130298;1260;106568;-81
2024/01/22 01:50:02;;;;;;;16.90;8.60;;;;;;;-0.20;68.04;100961.77;130290;1259;106295;-81
2024/01/22 01:53:08;;;;;;;15.10;7.40;;;;;;;-0.21;68.06;100957.11;130344;1259;108616;-81
2024/01/22 01:56:15;;;;;;;12.20;6.60;;;;;;;-0.22;68.12;100960.48;130355;1263;108825;-80
2024/01/22 01:59:21;;;;;;;12.90;6.90;;;;;;;-0.22;68.07;100958.73;130338;1260;106504;-80
2024/01/22 02:02:27;;;;;;;11.30;5.90;;;;;;;-0.21;67.96;100949.07;130367;1261;107183;-80
2024/01/22 02:05:33;;;;;;;14.80;8.90;;;;;;;-0.21;67.50;100940.31;130331;1260;108790;-82
2024/01/22 02:08:38;;;;;;;11.30;6.70;;;;;;;-0.21;67.24;100935.44;130365;1259;107998;-81
2024/01/22 02:11:44;;;;;;;12.70;6.40;;;;;;;-0.23;67.35;100941.63;130395;1259;106499;-81
2024/01/22 02:14:50;;;;;;;13.60;7.00;;;;;;;-0.24;67.54;100942.00;130354;1263;108392;-81
2024/01/22 02:17:59;;;;;;;11.60;6.00;;;;;;;-0.24;67.50;100939.58;130345;1259;107795;-82
2024/01/22 02:21:05;;;;;;;11.40;6.10;;;;;;;-0.26;67.40;100930.23;130330;1264;108830;-81
2024/01/22 02:24:11;;;;;;;12.20;6.10;;;;;;;-0.28;67.36;100922.96;130416;1263;108629;-81
2024/01/22 02:27:18;;;;;;;11.40;6.40;;;;;;;-0.28;67.10;100927.69;130363;1259;106307;-80
2024/01/22 02:30:23;;;;;;;10.00;5.80;;;;;;;-0.27;67.16;100921.51;130374;1264;108632;-81
2024/01/22 02:33:29;;;;;;;10.60;6.10;;;;;;;-0.26;67.18;100906.07;130384;1264;107132;-81
2024/01/22 02:36:34;;;;;;;10.70;5.80;;;;;;;-0.25;67.19;100892.25;130352;1264;107792;-81
2024/01/22 02:39:40;;;;;;;9.60;5.70;;;;;;;-0.27;67.06;100891.77;130388;1259;107871;-81
2024/01/22 02:42:46;;;;;;;11.50;5.70;;;;;;;-0.27;67.19;100884.28;130341;1259;108985;-81
2024/01/22 02:45:51;;;;;;;10.80;5.90;;;;;;;-0.27;66.83;100879.72;130366;1259;107851;-81
2024/01/22 02:48:58;;;;;;;9.00;5.30;;;;;;;-0.28;66.98;100886.76;130342;1263;107694;-80
2024/01/22 02:52:05;;;;;;;10.30;5.80;;;;;;;-0.28;66.83;100884.66;130357;1259;106471;-82
2024/01/22 02:55:11;;;;;;;11.10;5.90;;;;;;;-0.27;66.90;100870.11;130400;1259;107653;-81
2024/01/22 02:58:16;;;;;;;10.30;5.90;;;;;;;-0.27;66.86;100864.35;130329;1259;106881;-80
2024/01/22 03:01:22;;;;;;;11.60;6.10;;;;;;;-0.25;66.68;100864.44;130291;1259;108574;-82
2024/01/22 03:04:27;;;;;;;10.60;5.70;;;;;;;-0.22;66.67;100870.07;130356;1259;107740;-80
2024/01/22 03:07:33;;;;;;;9.20;5.60;;;;;;;-0.20;66.66;100870.67;130382;1259;108108;-82
2024/01/22 03:10:39;;;;;;;10.60;5.80;;;;;;;-0.20;66.58;100862.98;130388;1264;108166;-79
2024/01/22 03:13:44;;;;;;;9.40;5.30;;;;;;;-0.22;66.54;100857.46;130370;1259;107769;-80
2024/01/22 03:16:50;;;;;;;8.80;5.20;;;;;;;-0.22;66.46;100851.91;130335;1261;107586;-81
2024/01/22 03:19:56;;;;;;;11.30;6.10;;;;;;;-0.24;66.35;100840.09;130316;1259;107973;-81
2024/01/22 03:23:01;;;;;;;9.40;4.70;;;;;;;-0.29;66.35;100842.93;130342;1259;107946;-83
2024/01/22 03:26:07;;;;;;;10.00;5.50;;;;;;;-0.33;66.24;100841.54;130348;1260;108415;-80
2024/01/22 03:29:13;;;;;;;10.20;5.30;;;;;;;-0.36;66.26;100841.52;130318;1259;107721;-81
2024/01/22 03:32:18;;;;;;;10.40;5.10;;;;;;;-0.40;66.16;100843.76;130412;1259;107711;-81
2024/01/22 03:35:24;;;;;;;8.60;5.50;;;;;;;-0.43;65.81;100838.16;130426;1264;107703;-81
2024/01/22 03:38:30;;;;;;;9.40;5.40;;;;;;;-0.48;66.06;100834.85;130422;1264;109295;-80
2024/01/22 03:41:36;;;;;;;8.40;5.30;;;;;;;-0.51;66.00;100826.42;130171;1259;106519;-81
2024/01/22 03:44:41;;;;;;;9.80;5.30;;;;;;;-0.51;66.15;100823.66;130425;1259;108715;-83
2024/01/22 03:47:47;;;;;;;9.50;5.00;;;;;;;-0.49;66.03;100816.91;130382;1259;106316;-82
2024/01/22 03:50:54;;;;;;;9.40;5.50;;;;;;;-0.45;65.98;100816.71;130371;1260;108679;-82
2024/01/22 03:54:00;;;;;;;9.30;5.40;;;;;;;-0.37;66.03;100812.34;130473;1259;108698;-80
2024/01/22 03:57:07;;;;;;;9.50;5.40;;;;;;;-0.31;65.75;100815.92;130628;1264;106712;-81
2024/01/22 04:00:15;;;;;;;10.40;5.80;;;;;;;-0.27;65.80;100812.08;131013;1274;108531;-81
2024/01/22 04:03:20;;;;;;;9.10;5.30;;;;;;;-0.23;65.91;100804.88;130911;1263;106475;-79
2024/01/22 04:06:26;;;;;;;12.00;5.90;;;;;;;-0.11;65.69;100808.35;130582;1263;106548;-80
2024/01/22 04:09:31;;;;;;;13.40;6.60;;;;;;;-0.01;65.86;100808.09;130607;1262;106716;-81
2024/01/22 04:12:39;;;;;;;11.60;6.80;;;;;;;0.06;65.61;100805.48;130413;1262;108735;-80
2024/01/22 04:15:47;;;;;;;12.60;6.10;;;;;;;0.12;65.84;100804.67;130224;1275;108680;-79
2024/01/22 04:18:53;;;;;;;11.80;6.30;;;;;;;0.19;65.68;100801.00;130306;1259;106617;-79
2024/01/22 04:21:58;;;;;;;11.80;6.60;;;;;;;0.26;65.90;100792.81;130200;1259;107131;-80
2024/01/22 04:25:05;;;;;;;10.80;6.40;;;;;;;0.30;65.62;100782.45;130409;1259;106295;-79
2024/01/22 04:28:14;;;;;;;13.30;8.20;;;;;;;0.30;65.39;100775.30;130321;1259;107266;-80
2024/01/22 04:31:20;;;;;;;11.40;6.20;;;;;;;0.28;65.23;100765.26;130409;1259;106608;-81
2024/01/22 04:34:25;;;;;;;11.00;5.80;;;;;;;0.24;65.31;100757.40;130390;1259;106962;-82
2024/01/22 04:37:31;;;;;;;14.60;8.80;;;;;;;0.18;65.08;100746.64;130345;1264;107730;-81
2024/01/22 04:40:36;;;;;;;10.70;6.70;;;;;;;0.12;65.39;100746.25;130435;1259;107154;-80
2024/01/22 04:43:43;;;;;;;19.80;9.80;;;;;;;0.08;65.05;100746.23;130533;1264;106488;-79
2024/01/22 04:46:48;;;;;;;19.60;10.20;;;;;;;0.08;65.42;100745.23;130382;1265;106563;-80
2024/01/22 04:49:54;;;;;;;15.20;8.60;;;;;;;0.10;65.15;100745.82;130346;1262;108647;-80
2024/01/22 04:52:59;;;;;;;23.70;16.50;;;;;;;0.17;65.57;100744.96;130383;1264;106548;-81
2024/01/22 04:56:06;;;;;;;12.40;7.60;;;;;;;0.23;65.40;100739.60;130376;1259;106931;-81
2024/01/22 04:59:12;;;;;;;11.10;6.90;;;;;;;0.28;65.37;100737.60;130387;1264;107476;-80
2024/01/22 05:02:22;;;;;;;10.80;6.50;;;;;;;0.32;64.95;100721.15;130369;1263;107189;-80
2024/01/22 05:05:28;;;;;;;11.00;7.10;;;;;;;0.34;65.08;100709.66;130389;1259;108745;-79
2024/01/22 05:08:33;;;;;;;12.50;7.30;;;;;;;0.37;65.01;100703.00;130376;1263;108103;-81
2024/01/22 05:11:39;;;;;;;11.20;6.60;;;;;;;0.41;64.85;100699.85;130425;1264;107684;-80
2024/01/22 05:14:45;;;;;;;11.00;6.50;;;;;;;0.45;65.04;100700.18;130374;1259;108730;-79
2024/01/22 05:17:51;;;;;;;10.60;6.40;;;;;;;0.48;64.87;100687.92;130418;1261;108655;-82
2024/01/22 05:20:57;;;;;;;11.30;6.60;;;;;;;0.49;64.81;100680.38;130365;1262;106541;-79
2024/01/22 05:24:03;;;;;;;12.50;6.80;;;;;;;0.51;64.76;100673.08;130395;1263;108492;-80
2024/01/22 05:27:10;;;;;;;10.70;6.40;;;;;;;0.53;64.64;100672.64;130386;1276;107265;-80
2024/01/22 05:30:16;;;;;;;9.50;6.50;;;;;;;0.53;64.51;100665.61;130122;1263;107722;-80
2024/01/22 05:33:22;;;;;;;9.80;6.00;;;;;;;0.54;64.59;100663.99;130519;1262;106828;-78
2024/01/22 05:36:28;;;;;;;10.70;6.20;;;;;;;0.56;64.59;100659.54;130357;1263;107863;-80
2024/01/22 05:39:33;;;;;;;9.90;6.40;;;;;;;0.58;64.59;100658.38;130353;1259;108682;-80
2024/01/22 05:42:39;;;;;;;11.40;6.50;;;;;;;0.60;64.03;100650.59;130366;1259;107612;-78
2024/01/22 05:45:44;;;;;;;11.80;6.00;;;;;;;0.60;64.07;100641.14;130410;1263;108347;-81
2024/01/22 05:48:50;;;;;;;10.60;5.90;;;;;;;0.58;63.83;100636.52;130891;1263;106460;-78
2024/01/22 05:51:55;;;;;;;10.40;6.30;;;;;;;0.52;64.02;100633.63;130588;1259;108127;-81
2024/01/22 05:55:01;;;;;;;9.80;5.90;;;;;;;0.47;63.83;100623.43;130570;1259;107422;-80
2024/01/22 05:58:07;;;;;;;10.00;5.50;;;;;;;0.42;63.57;100618.08;130527;1263;107412;-82
2024/01/22 06:01:18;;;;;;;10.70;6.00;;;;;;;0.38;63.50;100612.48;130521;1262;107065;-80
2024/01/22 06:04:25;;;;;;;10.10;5.80;;;;;;;0.35;63.37;100599.52;130538;1263;108277;-80
2024/01/22 06:07:30;;;;;;;9.60;5.70;;;;;;;0.32;63.35;100587.27;130499;1259;107647;-81
2024/01/22 06:10:36;;;;;;;11.60;5.40;;;;;;;0.28;63.21;100584.33;130549;1264;105534;-80
2024/01/22 06:13:42;;;;;;;11.20;5.20;;;;;;;0.26;62.85;100578.83;130568;1259;107513;-82
2024/01/22 06:16:48;;;;;;;9.00;5.70;;;;;;;0.25;63.01;100575.55;130541;1259;107628;-80
2024/01/22 06:19:53;;;;;;;9.60;5.20;;;;;;;0.26;62.86;100558.70;130539;1274;108485;-78
2024/01/22 06:22:59;;;;;;;26.00;15.90;;;;;;;0.27;62.76;100560.90;130497;1263;108399;-76
2024/01/22 06:26:05;;;;;;;12.60;7.50;;;;;;;0.30;62.70;100563.05;130337;1264;108658;-77
2024/01/22 06:29:13;;;;;;;12.20;7.10;;;;;;;0.33;62.72;100555.88;130285;1274;106591;-77
2024/01/22 06:32:19;;;;;;;14.20;8.10;;;;;;;0.37;62.79;100543.25;130308;1259;106341;-77
2024/01/22 06:35:25;;;;;;;11.70;6.40;;;;;;;0.41;62.63;100539.38;130268;1259;107894;-78
2024/01/22 06:38:30;;;;;;;13.60;7.40;;;;;;;0.44;62.39;100536.23;130254;1259;108091;-80
2024/01/22 06:41:36;;;;;;;12.60;7.10;;;;;;;0.46;62.28;100539.80;130541;1264;108854;-76
2024/01/22 06:44:42;;;;;;;12.00;6.60;;;;;;;0.50;62.23;100545.03;130287;1264;106867;-76
2024/01/22 06:47:47;;;;;;;14.60;7.70;;;;;;;0.54;62.27;100539.91;130521;1259;106808;-76
2024/01/22 06:50:53;;;;;;;13.70;7.10;;;;;;;0.58;62.44;100537.77;130267;1264;107686;-76
2024/01/22 06:53:59;;;;;;;12.30;5.90;;;;;;;0.61;62.11;100548.62;130232;1264;106986;-76
2024/01/22 06:57:05;;;;;;;11.10;5.90;;;;;;;0.66;61.99;100549.44;130263;1265;108757;-76
2024/01/22 07:00:13;;;;;;;10.70;5.80;;;;;;;0.71;62.12;100549.33;130273;1259;107558;-75
2024/01/22 07:03:18;;;;;;;9.60;5.70;;;;;;;0.76;61.75;100549.55;130246;1259;106593;-76
2024/01/22 07:06:24;;;;;;;13.10;5.80;;;;;;;0.81;61.88;100543.91;130296;1259;108746;-75
2024/01/22 07:09:29;;;;;;;10.20;5.60;;;;;;;0.84;60.94;100536.70;130290;1265;108679;-76
2024/01/22 07:12:35;;;;;;;12.70;5.80;;;;;;;0.90;61.35;100532.52;130199;1259;107310;-76
2024/01/22 07:15:41;;;;;;;11.50;5.90;;;;;;;0.97;61.61;100534.63;130152;1258;107851;-78
2024/01/22 07:18:47;;;;;;;11.10;6.00;;;;;;;1.05;61.95;100534.19;130192;1264;107780;-76
2024/01/22 07:21:52;;;;;;;14.10;7.60;;;;;;;1.12;61.50;100536.36;130205;1264;108013;-75
2024/01/22 07:24:58;;;;;;;10.80;6.10;;;;;;;1.20;61.14;100541.76;130356;1259;107914;-77
2024/01/22 07:28:04;;;;;;;19.10;10.20;;;;;;;1.26;61.12;100543.13;130274;1263;108722;-74
2024/01/22 07:31:18;;;;;;;13.30;6.60;;;;;;;1.30;61.12;100535.02;130388;1259;107637;-76
2024/01/22 07:34:25;;;;;;;13.10;6.60;;;;;;;1.37;61.17;100547.08;130074;1264;106850;-76
2024/01/22 07:37:31;;;;;;;21.00;12.80;;;;;;;1.42;60.65;100550.81;130319;1259;107712;-76
2024/01/22 07:40:37;;;;;;;14.10;7.00;;;;;;;1.47;60.16;100544.44;130273;1264;108675;-76
2024/01/22 07:43:43;;;;;;;13.70;6.50;;;;;;;1.50;60.75;100542.63;130209;1259;107254;-76
2024/01/22 07:46:49;;;;;;;11.40;6.60;;;;;;;1.59;60.68;100535.52;130232;1259;108556;-76
2024/01/22 07:49:55;;;;;;;11.80;6.50;;;;;;;1.67;60.95;100530.83;130292;1259;107295;-76
2024/01/22 07:53:00;;;;;;;12.10;7.40;;;;;;;1.75;60.81;100524.59;130228;1259;108744;-76
2024/01/22 07:56:08;;;;;;;13.00;6.90;;;;;;;1.83;60.65;100523.23;130239;1259;107599;-76
2024/01/22 07:59:21;;;;;;;13.40;6.80;;;;;;;1.89;60.53;100517.22;130181;1264;108717;-77
2024/01/22 08:02:27;;;;;;;11.60;6.60;;;;;;;1.98;60.92;100521.27;130270;1259;108778;-77
2024/01/22 08:05:32;;;;;;;12.80;6.50;;;;;;;2.08;60.27;100511.05;130601;1259;108068;-77
2024/01/22 08:08:40;;;;;;;13.20;8.00;;;;;;;2.16;60.39;100498.45;130265;1259;107803;-77
2024/01/22 08:11:47;;;;;;;12.90;6.80;;;;;;;2.25;59.93;100488.79;130277;1259;106022;-76
2024/01/22 08:14:53;;;;;;;22.50;13.00;;;;;;;2.34;60.21;100487.88;130208;1259;107795;-76
2024/01/22 08:17:58;;;;;;;16.40;8.60;;;;;;;2.44;60.03;100477.40;130193;1259;107650;-75
2024/01/22 08:21:04;;;;;;;12.90;7.80;;;;;;;2.53;59.77;100468.40;130281;1263;108414;-77
2024/01/22 08:24:10;;;;;;;20.70;12.60;;;;;;;2.59;60.00;100456.84;130306;1264;108685;-77
2024/01/22 08:27:15;;;;;;;14.30;7.90;;;;;;;2.65;59.71;100454.65;130305;1259;108615;-78
2024/01/22 08:30:21;;;;;;;11.30;7.00;;;;;;;2.71;59.37;100446.41;130236;1265;106885;-77
2024/01/22 08:33:27;;;;;;;18.50;11.10;;;;;;;2.77;59.33;100439.86;130288;1259;107639;-78
2024/01/22 08:36:32;;;;;;;14.40;7.80;;;;;;;2.84;59.39;100427.49;130369;1265;108627;-75
2024/01/22 08:39:38;;;;;;;13.00;6.80;;;;;;;2.92;58.56;100423.61;130260;1259;108267;-77
2024/01/22 08:42:44;;;;;;;12.30;6.90;;;;;;;3.00;58.42;100421.52;130238;1259;108784;-79
2024/01/22 08:45:49;;;;;;;11.90;6.70;;;;;;;3.07;58.82;100415.60;130503;1259;107607;-78
2024/01/22 08:48:56;;;;;;;11.30;6.70;;;;;;;3.16;57.95;100412.73;130535;1272;109097;-78
2024/01/22 08:52:03;;;;;;;15.60;6.70;;;;;;;3.24;58.81;100409.06;130403;1260;106979;-78
2024/01/22 08:55:09;;;;;;;13.50;6.90;;;;;;;3.29;58.17;100402.16;130460;1261;106643;-76
2024/01/22 08:58:15;;;;;;;11.50;7.30;;;;;;;3.36;58.23;100404.91;130372;1261;106612;-76
2024/01/22 09:01:21;;;;;;;13.30;8.10;;;;;;;3.43;58.65;100399.66;130268;1264;107686;-78
2024/01/22 09:04:27;;;;;;;12.30;7.80;;;;;;;3.52;58.84;100397.09;130277;1264;106840;-76
2024/01/22 09:07:33;;;;;;;11.90;6.90;;;;;;;3.61;58.43;100390.39;130304;1259;106429;-77
2024/01/22 09:10:38;;;;;;;10.50;6.20;;;;;;;3.67;58.48;100381.71;130275;1259;107611;-76
2024/01/22 09:13:44;;;;;;;10.70;6.80;;;;;;;3.70;57.88;100378.29;130286;1263;108596;-76
2024/01/22 09:16:49;;;;;;;11.20;6.70;;;;;;;3.75;57.65;100371.82;130315;1262;105538;-75
2024/01/22 09:19:55;;;;;;;14.00;7.90;;;;;;;3.78;58.05;100367.54;130260;1259;107662;-77
2024/01/22 09:23:02;;;;;;;12.00;6.60;;;;;;;3.82;58.12;100366.41;130256;1265;108819;-77
2024/01/22 09:26:07;;;;;;;12.80;6.90;;;;;;;3.86;57.57;100356.63;130342;1264;108617;-76
2024/01/22 09:29:13;;;;;;;11.00;6.80;;;;;;;3.88;57.16;100350.46;130264;1259;107276;-77
2024/01/22 09:32:19;;;;;;;11.60;6.60;;;;;;;3.90;56.95;100337.83;130240;1259;108751;-76
2024/01/22 09:35:24;;;;;;;12.40;6.40;;;;;;;3.92;57.06;100337.36;130300;1264;106506;-81
2024/01/22 09:38:30;;;;;;;11.50;6.10;;;;;;;3.91;56.14;100329.54;130334;1275;108689;-79
2024/01/22 09:41:36;;;;;;;12.60;6.90;;;;;;;3.90;56.99;100334.16;130272;1259;107530;-80
2024/01/22 09:44:42;;;;;;;12.30;6.70;;;;;;;3.95;56.94;100336.26;130595;1264;107886;-80
2024/01/22 09:47:48;;;;;;;13.50;7.20;;;;;;;3.99;56.56;100331.77;130469;1261;108610;-80
2024/01/22 09:50:54;;;;;;;11.00;6.10;;;;;;;4.02;55.86;100332.30;130557;1259;106344;-80
2024/01/22 09:54:06;;;;;;;11.90;6.50;;;;;;;4.02;55.73;100296.37;130488;1258;107159;-80
2024/01/22 09:57:17;;;;;;;11.90;6.60;;;;;;;4.04;56.04;100293.21;130566;1259;107680;-76
2024/01/22 10:00:26;;;;;;;10.70;6.40;;;;;;;4.04;55.77;100293.54;130257;1259;109140;-77
2024/01/22 10:03:55;;;;;;;11.10;6.70;;;;;;;4.07;55.85;100287.76;130269;1261;108600;-83
2024/01/22 10:07:15;;;;;;;12.20;6.70;;;;;;;4.16;55.94;100261.54;130233;1261;109665;-76
2024/01/22 10:10:21;;;;;;;11.70;6.80;;;;;;;4.26;56.43;100262.38;130338;1259;108982;-77
2024/01/22 10:13:27;;;;;;;11.80;6.80;;;;;;;4.35;55.69;100239.70;130382;1259;106278;-79
2024/01/22 10:16:33;;;;;;;11.80;6.60;;;;;;;4.41;56.20;100224.82;130270;1259;107660;-80
2024/01/22 10:19:39;;;;;;;10.80;6.70;;;;;;;4.47;55.51;100213.81;130605;1259;107651;-78
2024/01/22 10:22:44;;;;;;;25.90;14.80;;;;;;;4.48;55.58;100208.97;130312;1259;106779;-79
2024/01/22 10:25:50;;;;;;;12.00;7.00;;;;;;;4.53;55.47;100199.48;130290;1260;106569;-79
2024/01/22 10:29:11;;;;;;;19.20;10.90;;;;;;;4.58;55.06;100199.27;130523;1263;107636;-78
2024/01/22 10:32:22;;;;;;;14.90;8.10;;;;;;;4.66;55.40;100206.98;130416;1264;108561;-75
2024/01/22 10:35:32;;;;;;;13.50;7.50;;;;;;;4.71;55.20;100202.69;130288;1261;109174;-76
2024/01/22 10:38:37;;;;;;;64.80;29.70;;;;;;;4.77;55.20;100199.95;130163;1263;106843;-77
2024/01/22 10:41:43;;;;;;;34.20;18.40;;;;;;;4.82;54.88;100194.84;130320;1263;107169;-77
2024/01/22 10:44:50;;;;;;;25.50;16.00;;;;;;;4.86;54.42;100177.38;130269;1264;107569;-74
2024/01/22 10:47:58;;;;;;;18.80;9.90;;;;;;;4.91;54.88;100170.15;130258;1274;106843;-75
2024/01/22 10:51:04;;;;;;;13.20;7.80;;;;;;;4.98;54.23;100157.06;130400;1264;108710;-74
2024/01/22 10:54:11;;;;;;;24.70;12.00;;;;;;;5.02;54.40;100145.50;130270;1259;106876;-74
2024/01/22 10:57:25;;;;;;;12.00;7.50;;;;;;;5.06;53.79;100131.41;130329;1274;106370;-75
2024/01/22 11:00:32;;;;;;;12.60;7.60;;;;;;;5.12;54.34;100117.55;130244;1259;108688;-76
2024/01/22 11:03:44;;;;;;;14.40;7.70;;;;;;;5.17;53.86;100104.28;130276;1265;109440;-75
2024/01/22 11:06:53;;;;;;;11.60;7.00;;;;;;;5.22;53.65;100102.47;130323;1263;108470;-76
2024/01/22 11:10:02;;;;;;;14.90;7.80;;;;;;;5.26;53.43;100094.77;130340;1263;108682;-75
2024/01/22 11:13:08;;;;;;;13.50;8.50;;;;;;;5.32;53.08;100084.91;130286;1263;106613;-77
2024/01/22 11:16:14;;;;;;;15.70;9.00;;;;;;;5.38;53.55;100076.83;130282;1259;106404;-76
2024/01/22 11:19:23;;;;;;;13.00;7.20;;;;;;;5.46;53.28;100084.52;130273;1259;108592;-78
2024/01/22 11:22:29;;;;;;;11.90;7.20;;;;;;;5.46;53.70;100088.03;130306;1265;107805;-76
2024/01/22 11:25:34;;;;;;;11.70;7.10;;;;;;;5.47;52.52;100092.36;130399;1264;106931;-75
2024/01/22 11:29:00;;;;;;;14.80;7.80;;;;;;;5.40;52.68;100096.27;130399;1258;107044;-76
2024/01/22 11:32:28;;;;;;;14.40;7.80;;;;;;;5.37;53.09;100087.34;130312;1259;106770;-75
2024/01/22 11:35:38;;;;;;;14.60;7.50;;;;;;;5.33;52.56;100087.31;130205;1259;107849;-76
2024/01/22 11:38:53;;;;;;;13.50;7.80;;;;;;;5.32;52.83;100090.36;130310;1264;108680;-75
2024/01/22 11:41:59;;;;;;;18.40;10.40;;;;;;;5.30;52.08;100081.22;130327;1259;107722;-77
2024/01/22 11:45:14;;;;;;;15.60;8.60;;;;;;;5.29;52.92;100067.02;130308;1263;108648;-77
2024/01/22 11:48:21;;;;;;;15.80;8.90;;;;;;;5.30;52.47;100054.88;130363;1259;108562;-77
2024/01/22 11:51:29;;;;;;;15.40;9.00;;;;;;;5.29;52.20;100051.66;130343;1261;107646;-77
2024/01/22 11:54:35;;;;;;;15.30;9.10;;;;;;;5.29;52.21;100047.45;130281;1259;108552;-77
2024/01/22 11:57:40;;;;;;;16.30;9.00;;;;;;;5.27;52.49;100051.27;130319;1263;106518;-77
2024/01/22 12:00:46;;;;;;;19.20;10.70;;;;;;;5.27;52.55;100044.43;130383;1259;106680;-77
2024/01/22 12:03:51;;;;;;;16.30;8.50;;;;;;;5.23;51.86;100045.25;130289;1259;107105;-77
2024/01/22 12:06:57;;;;;;;24.30;13.10;;;;;;;5.21;52.59;100045.43;130301;1265;108669;-75
2024/01/22 12:10:04;;;;;;;39.30;19.90;;;;;;;5.21;52.15;100042.45;130273;1264;108930;-75
2024/01/22 12:13:09;;;;;;;37.40;19.20;;;;;;;5.20;51.88;100037.05;130318;1264;107472;-75
2024/01/22 12:16:17;;;;;;;21.20;10.60;;;;;;;5.18;52.01;100030.16;130278;1259;108871;-75
2024/01/22 12:19:22;;;;;;;132.00;55.90;;;;;;;5.18;51.44;100026.48;130306;1272;108484;-76
2024/01/22 12:22:28;;;;;;;49.40;21.10;;;;;;;5.19;50.90;100026.40;130294;1259;108134;-77
2024/01/22 12:25:38;;;;;;;26.70;12.20;;;;;;;5.18;51.27;100017.66;130345;1261;106743;-76
2024/01/22 12:28:44;;;;;;;348.70;165.20;;;;;;;5.15;50.77;100020.89;130379;1268;108617;-77
2024/01/22 12:31:50;;;;;;;50.70;22.70;;;;;;;5.13;50.78;100024.19;130265;1265;106710;-75
2024/01/22 12:34:58;;;;;;;26.50;12.30;;;;;;;5.09;50.64;100023.65;130297;1273;108291;-76
2024/01/22 12:38:13;;;;;;;18.80;9.00;;;;;;;5.05;50.44;100019.94;130278;1262;106969;-76
2024/01/22 12:41:19;;;;;;;19.30;10.20;;;;;;;5.01;50.79;100014.75;130314;1262;108669;-76
2024/01/22 12:44:24;;;;;;;26.20;17.50;;;;;;;5.00;50.95;100005.46;130342;1264;107976;-77
2024/01/22 12:47:30;;;;;;;19.10;9.30;;;;;;;5.01;51.33;99999.46;130281;1259;107759;-77
2024/01/22 12:50:36;;;;;;;15.50;8.30;;;;;;;5.01;51.34;100003.98;130296;1265;106385;-77
2024/01/22 12:53:45;;;;;;;14.30;8.30;;;;;;;5.01;51.18;99999.61;130273;1263;108010;-77
2024/01/22 12:56:50;;;;;;;13.40;7.90;;;;;;;5.00;50.70;99991.22;130358;1259;107506;-77
2024/01/22 12:59:56;;;;;;;15.50;8.40;;;;;;;5.01;51.26;99980.77;130320;1271;107770;-76
2024/01/22 13:03:01;;;;;;;18.30;8.80;;;;;;;5.03;51.13;99969.13;130338;1263;107634;-77
2024/01/22 13:06:08;;;;;;;19.40;9.40;;;;;;;5.02;50.58;99968.28;130267;1263;107814;-75
2024/01/22 13:09:13;;;;;;;22.50;10.70;;;;;;;5.02;50.62;99959.89;130318;1260;107640;-76
2024/01/22 13:12:20;;;;;;;93.90;44.80;;;;;;;5.01;50.88;99966.81;130358;1265;108666;-75
2024/01/22 13:15:26;;;;;;;42.70;18.60;;;;;;;5.02;50.74;99963.02;130269;1264;107870;-75
2024/01/22 13:18:31;;;;;;;57.20;27.40;;;;;;;5.03;50.76;99948.35;130303;1265;106452;-76
2024/01/22 13:21:37;;;;;;;48.70;23.40;;;;;;;5.04;50.52;99945.58;130270;1260;108683;-77
2024/01/22 13:24:43;;;;;;;31.40;15.70;;;;;;;5.06;50.70;99939.92;130358;1265;108711;-76
2024/01/22 13:27:49;;;;;;;29.20;13.60;;;;;;;5.08;50.19;99940.46;130442;1264;108641;-76
2024/01/22 13:30:55;;;;;;;15.20;8.10;;;;;;;5.10;50.22;99942.11;130442;1263;107140;-77
2024/01/22 13:34:30;;;;;;;14.00;7.10;;;;;;;5.12;50.48;99934.67;130333;1263;106850;-75
2024/01/22 13:37:39;;;;;;;12.40;7.10;;;;;;;5.16;49.96;99924.71;130341;1264;109459;-77
2024/01/22 13:40:45;;;;;;;9.90;5.70;;;;;;;5.18;49.73;99915.88;130107;1261;107360;-77
2024/01/22 13:43:53;;;;;;;10.50;5.90;;;;;;;5.21;49.01;99918.30;130452;1263;107747;-77
2024/01/22 13:46:59;;;;;;;9.20;4.80;;;;;;;5.23;49.50;99896.09;130430;1264;107665;-77
2024/01/22 13:50:06;;;;;;;10.00;5.20;;;;;;;5.24;49.37;99896.18;130272;1265;106949;-77
2024/01/22 13:53:12;;;;;;;9.80;5.50;;;;;;;5.25;49.91;99895.05;130327;1261;106867;-77
2024/01/22 13:56:18;;;;;;;8.20;5.00;;;;;;;5.26;49.46;99895.84;130333;1275;108696;-77
2024/01/22 13:59:24;;;;;;;12.40;7.60;;;;;;;5.26;48.76;99891.95;130428;1268;107556;-77
2024/01/22 14:02:30;;;;;;;16.00;9.70;;;;;;;5.26;49.42;99883.45;130270;1263;108602;-72
2024/01/22 14:05:35;;;;;;;10.00;5.60;;;;;;;5.26;48.59;99874.62;130305;1265;107682;-72